Atlantis Armona — 9HA2518 — position and weather

sailwx.info

Track history (hours):
 
Tides and Currents Weather Stations Pressure Air Temp Water Temp Dewpoint Dewpoint Depression Visibility Wind Speed Wind Dir Waves Ship Positions

Atlantis Armona

Last reported at 2017-Sep-23 20:02 UTC. Time now 2017-Sep-24 05:03 UTC.
Position N 37°20' W 000°55'.

Length 92 m; draft 5.4 m.

Type: Tanker. MMSI: 248793000.

Date/timePositionNaut miles runAvg speedWind from/ knotsBaromVisibWave heightAir tempDewpointWater temp
2017-Sep-23 20:02N 37°20' W 000°55'010.0
2017-Sep-23 20:00N 37°20' W 000°54'  
2017-Sep-20 16:14N 42°39' E 004°29'2 8.3
2017-Sep-20 16:00N 42°40' E 004°30'5 8.1
2017-Sep-20 15:25N 42°44' E 004°34'3 8.2
2017-Sep-20 15:00N 42°47' E 004°37'8 7.9
2017-Sep-20 14:00N 42°53' E 004°43'4 7.8
2017-Sep-20 13:30N 42°56' E 004°46'4 7.7
2017-Sep-20 13:01N 42°60' E 004°49'4 8.3
2017-Sep-20 12:30N 43°03' E 004°52'5 9.2
2017-Sep-20 12:01N 43°07' E 004°56'510.1
2017-Sep-20 11:30N 43°11' E 004°60'510.0
2017-Sep-20 11:01N 43°16' E 004°59'511.0
2017-Sep-20 10:31N 43°21' E 004°58'3 4.9
2017-Sep-20 09:56N 43°24' E 004°60'0 0.0
2017-Sep-20 09:26N 43°24' E 004°60'0 0.0
2017-Sep-20 08:56N 43°24' E 004°60'0 0.0
2017-Sep-20 08:29N 43°24' E 004°60'0 0.0
2017-Sep-20 07:59N 43°24' E 004°60'0 0.0
2017-Sep-20 07:26N 43°24' E 004°60'0 0.0
2017-Sep-20 06:56N 43°24' E 004°60'0 0.0
2017-Sep-20 06:29N 43°24' E 004°60'0 0.0
2017-Sep-20 05:56N 43°24' E 004°60'0 0.0
2017-Sep-20 05:29N 43°24' E 004°60'0 0.0
2017-Sep-20 04:59N 43°24' E 004°60'0 0.0
2017-Sep-20 04:26N 43°24' E 004°60'0 0.0
2017-Sep-20 03:56N 43°24' E 004°60'0 0.0
2017-Sep-20 03:29N 43°24' E 004°60'0 0.0
2017-Sep-20 02:59N 43°24' E 004°60'0 0.0
2017-Sep-20 02:29N 43°24' E 004°60'0 0.0
2017-Sep-20 01:59N 43°24' E 004°60'0 0.0
2017-Sep-20 01:29N 43°24' E 004°60'0 0.0
2017-Sep-20 00:59N 43°24' E 004°60'0 0.0
2017-Sep-20 00:26N 43°24' E 004°60'0 0.0
2017-Sep-19 23:59N 43°24' E 004°60'0 0.0
2017-Sep-19 23:29N 43°24' E 004°60'0 0.0
2017-Sep-19 22:59N 43°24' E 004°60'0 0.0
2017-Sep-19 22:26N 43°24' E 004°60'0 0.0
2017-Sep-19 21:59N 43°24' E 004°60'0 0.0
2017-Sep-19 21:29N 43°24' E 004°60'0 0.0
2017-Sep-19 20:50N 43°24' E 004°60'0 0.0
2017-Sep-19 20:29N 43°24' E 004°60'0 0.0
2017-Sep-19 19:56N 43°24' E 004°60'0 0.0
2017-Sep-19 19:29N 43°24' E 004°60'0 0.0
2017-Sep-19 18:56N 43°24' E 004°60'0 0.0
2017-Sep-19 18:29N 43°24' E 004°60'0 0.0
2017-Sep-19 17:56N 43°24' E 004°60'0 0.0
2017-Sep-19 17:26N 43°24' E 004°60'0 0.0
2017-Sep-19 16:56N 43°24' E 004°60'0 0.0
2017-Sep-19 16:29N 43°24' E 004°60'0 0.0
2017-Sep-19 15:56N 43°24' E 004°60'0 0.0
2017-Sep-19 15:26N 43°24' E 004°60'0 0.0
2017-Sep-19 15:00N 43°24' E 004°60'2 3.1
2017-Sep-19 14:30N 43°22' E 004°59'4 7.8
2017-Sep-19 14:00N 43°19' E 004°60'4 8.3
2017-Sep-19 13:30N 43°15' E 005°01'4 7.1
2017-Sep-19 13:00N 43°11' E 005°01'510.2
2017-Sep-19 12:30N 43°10' E 004°54'510.2
2017-Sep-19 12:00N 43°09' E 004°47'510.8
2017-Sep-19 11:30N 43°08' E 004°40'510.9
2017-Sep-19 11:00N 43°07' E 004°32'510.8
2017-Sep-19 10:30N 43°07' E 004°25'510.7
2017-Sep-19 10:00N 43°06' E 004°18'510.6
2017-Sep-19 09:30N 43°05' E 004°11'510.6
2017-Sep-19 09:00N 43°04' E 004°04'510.6
2017-Sep-19 08:30N 43°03' E 003°56'136 3.9
2017-Sep-17 21:58N 41°02' E 002°33'510.4
2017-Sep-17 21:27N 40°57' E 002°29'510.3
2017-Sep-17 21:00N 40°54' E 002°26'510.1
2017-Sep-17 20:30N 40°49' E 002°22'510.1
2017-Sep-17 20:00N 40°45' E 002°19'510.5
2017-Sep-17 19:30N 40°41' E 002°15'510.8
2017-Sep-17 19:00N 40°36' E 002°11'511.0
2017-Sep-17 18:30N 40°32' E 002°07'611.0
2017-Sep-17 18:00N 40°27' E 002°03'611.4
2017-Sep-17 17:30N 40°23' E 001°58'611.7
2017-Sep-17 17:00N 40°18' E 001°54'611.3
2017-Sep-17 16:30N 40°13' E 001°50'611.2
2017-Sep-17 16:00N 40°08' E 001°46'611.3
2017-Sep-17 15:30N 40°04' E 001°42'611.1
2017-Sep-17 15:00N 39°59' E 001°38'510.9
2017-Sep-17 14:30N 39°55' E 001°34'610.9
2017-Sep-17 13:58N 39°50' E 001°29'511.1
2017-Sep-17 13:30N 39°45' E 001°25'14710.5
2017-Sep-16 23:26N 37°44' W 000°21'4 9.7
2017-Sep-16 23:00N 37°41' W 000°25'5 9.6
2017-Sep-16 22:30N 37°37' W 000°28'9 9.1
2017-Sep-16 21:29N 37°30' W 000°36'4 8.6
2017-Sep-16 21:00N 37°27' W 000°40'4 8.9
2017-Sep-16 20:30N 37°24' W 000°44'4 9.0
2017-Sep-16 20:00N 37°21' W 000°48'5 9.0
2017-Sep-16 19:30N 37°18' W 000°52'7 8.9
2017-Sep-16 18:43N 37°13' W 000°59'21810.5
2017-Sep-15 22:00N 36°00' W 005°15'713.5
2017-Sep-15 21:30N 35°58' W 005°23'611.7
2017-Sep-15 21:00N 35°56' W 005°30'510.4
2017-Sep-15 20:30N 35°55' W 005°36'5 9.0
2017-Sep-15 19:56N 35°54' W 005°42'  
Track history (hours):
 
Tides and Currents Weather Stations Pressure Air Temp Water Temp Dewpoint Dewpoint Depression Visibility Wind Speed Wind Dir Waves Ship Positions

Atlantis Armona

Last reported at 2017-Sep-23 20:02 UTC. Time now 2017-Sep-24 05:03 UTC.
Position N 37°20' W 000°55'.

Length 92 m; draft 5.4 m.

Type: Tanker. MMSI: 248793000.

Date/timePositionNaut miles runAvg speedWind from/ knotsBaromVisibWave heightAir tempDewpointWater temp
2017-Sep-23 20:02N 37°20' W 000°55'010.0
2017-Sep-23 20:00N 37°20' W 000°54'  
2017-Sep-20 16:14N 42°39' E 004°29'2 8.3
2017-Sep-20 16:00N 42°40' E 004°30'5 8.1
2017-Sep-20 15:25N 42°44' E 004°34'3 8.2
2017-Sep-20 15:00N 42°47' E 004°37'8 7.9
2017-Sep-20 14:00N 42°53' E 004°43'4 7.8
2017-Sep-20 13:30N 42°56' E 004°46'4 7.7
2017-Sep-20 13:01N 42°60' E 004°49'4 8.3
2017-Sep-20 12:30N 43°03' E 004°52'5 9.2
2017-Sep-20 12:01N 43°07' E 004°56'510.1
2017-Sep-20 11:30N 43°11' E 004°60'510.0
2017-Sep-20 11:01N 43°16' E 004°59'511.0
2017-Sep-20 10:31N 43°21' E 004°58'3 4.9
2017-Sep-20 09:56N 43°24' E 004°60'0 0.0
2017-Sep-20 09:26N 43°24' E 004°60'0 0.0
2017-Sep-20 08:56N 43°24' E 004°60'0 0.0
2017-Sep-20 08:29N 43°24' E 004°60'0 0.0
2017-Sep-20 07:59N 43°24' E 004°60'0 0.0
2017-Sep-20 07:26N 43°24' E 004°60'0 0.0
2017-Sep-20 06:56N 43°24' E 004°60'0 0.0
2017-Sep-20 06:29N 43°24' E 004°60'0 0.0
2017-Sep-20 05:56N 43°24' E 004°60'0 0.0
2017-Sep-20 05:29N 43°24' E 004°60'0 0.0
2017-Sep-20 04:59N 43°24' E 004°60'0 0.0
2017-Sep-20 04:26N 43°24' E 004°60'0 0.0
2017-Sep-20 03:56N 43°24' E 004°60'0 0.0
2017-Sep-20 03:29N 43°24' E 004°60'0 0.0
2017-Sep-20 02:59N 43°24' E 004°60'0 0.0
2017-Sep-20 02:29N 43°24' E 004°60'0 0.0
2017-Sep-20 01:59N 43°24' E 004°60'0 0.0
2017-Sep-20 01:29N 43°24' E 004°60'0 0.0
2017-Sep-20 00:59N 43°24' E 004°60'0 0.0
2017-Sep-20 00:26N 43°24' E 004°60'0 0.0
2017-Sep-19 23:59N 43°24' E 004°60'0 0.0
2017-Sep-19 23:29N 43°24' E 004°60'0 0.0
2017-Sep-19 22:59N 43°24' E 004°60'0 0.0
2017-Sep-19 22:26N 43°24' E 004°60'0 0.0
2017-Sep-19 21:59N 43°24' E 004°60'0 0.0
2017-Sep-19 21:29N 43°24' E 004°60'0 0.0
2017-Sep-19 20:50N 43°24' E 004°60'0 0.0
2017-Sep-19 20:29N 43°24' E 004°60'0 0.0
2017-Sep-19 19:56N 43°24' E 004°60'0 0.0
2017-Sep-19 19:29N 43°24' E 004°60'0 0.0
2017-Sep-19 18:56N 43°24' E 004°60'0 0.0
2017-Sep-19 18:29N 43°24' E 004°60'0 0.0
2017-Sep-19 17:56N 43°24' E 004°60'0 0.0
2017-Sep-19 17:26N 43°24' E 004°60'0 0.0
2017-Sep-19 16:56N 43°24' E 004°60'0 0.0
2017-Sep-19 16:29N 43°24' E 004°60'0 0.0
2017-Sep-19 15:56N 43°24' E 004°60'0 0.0
2017-Sep-19 15:26N 43°24' E 004°60'0 0.0
2017-Sep-19 15:00N 43°24' E 004°60'2 3.1
2017-Sep-19 14:30N 43°22' E 004°59'4 7.8
2017-Sep-19 14:00N 43°19' E 004°60'4 8.3
2017-Sep-19 13:30N 43°15' E 005°01'4 7.1
2017-Sep-19 13:00N 43°11' E 005°01'510.2
2017-Sep-19 12:30N 43°10' E 004°54'510.2
2017-Sep-19 12:00N 43°09' E 004°47'510.8
2017-Sep-19 11:30N 43°08' E 004°40'510.9
2017-Sep-19 11:00N 43°07' E 004°32'510.8
2017-Sep-19 10:30N 43°07' E 004°25'510.7
2017-Sep-19 10:00N 43°06' E 004°18'510.6
2017-Sep-19 09:30N 43°05' E 004°11'510.6
2017-Sep-19 09:00N 43°04' E 004°04'510.6
2017-Sep-19 08:30N 43°03' E 003°56'136 3.9
2017-Sep-17 21:58N 41°02' E 002°33'510.4
2017-Sep-17 21:27N 40°57' E 002°29'510.3
2017-Sep-17 21:00N 40°54' E 002°26'510.1
2017-Sep-17 20:30N 40°49' E 002°22'510.1
2017-Sep-17 20:00N 40°45' E 002°19'510.5
2017-Sep-17 19:30N 40°41' E 002°15'510.8
2017-Sep-17 19:00N 40°36' E 002°11'511.0
2017-Sep-17 18:30N 40°32' E 002°07'611.0
2017-Sep-17 18:00N 40°27' E 002°03'611.4
2017-Sep-17 17:30N 40°23' E 001°58'611.7
2017-Sep-17 17:00N 40°18' E 001°54'611.3
2017-Sep-17 16:30N 40°13' E 001°50'611.2
2017-Sep-17 16:00N 40°08' E 001°46'611.3
2017-Sep-17 15:30N 40°04' E 001°42'611.1
2017-Sep-17 15:00N 39°59' E 001°38'510.9
2017-Sep-17 14:30N 39°55' E 001°34'610.9
2017-Sep-17 13:58N 39°50' E 001°29'511.1
2017-Sep-17 13:30N 39°45' E 001°25'14710.5
2017-Sep-16 23:26N 37°44' W 000°21'4 9.7
2017-Sep-16 23:00N 37°41' W 000°25'5 9.6
2017-Sep-16 22:30N 37°37' W 000°28'9 9.1
2017-Sep-16 21:29N 37°30' W 000°36'4 8.6
2017-Sep-16 21:00N 37°27' W 000°40'4 8.9
2017-Sep-16 20:30N 37°24' W 000°44'4 9.0
2017-Sep-16 20:00N 37°21' W 000°48'5 9.0
2017-Sep-16 19:30N 37°18' W 000°52'7 8.9
2017-Sep-16 18:43N 37°13' W 000°59'21810.5
2017-Sep-15 22:00N 36°00' W 005°15'713.5
2017-Sep-15 21:30N 35°58' W 005°23'611.7
2017-Sep-15 21:00N 35°56' W 005°30'510.4
2017-Sep-15 20:30N 35°55' W 005°36'5 9.0
2017-Sep-15 19:56N 35°54' W 005°42'  

Dump ship's entire track history